Time;durP1;ratioP1;P1;durP2;ratioP2;P2;SDS_P1;SDS_P2;PMS_P1;PMS_P2;Temp;Humidity;BMP_temperature;BMP_pressure;BME280_temperature;BME280_humidity;BME280_pressure;Samples;Min_cycle;Max_cycle;Signal;HPM_P1;HPM_P2
2021/03/30 00:01:49;;;;;;;;;;;15.70;53.50;;;;;;4377939;32;20030;-72
2021/03/30 00:04:19;;;;;;;;;;;15.70;53.20;;;;;;4377105;32;38429;-72
2021/03/30 00:06:45;;;;;;;;;;;15.70;52.80;;;;;;4377037;32;44708;-72
2021/03/30 00:09:12;;;;;;;;;;;15.60;52.50;;;;;;4363574;32;36466;-72
2021/03/30 00:11:39;;;;;;;;;;;15.60;52.40;;;;;;4377527;32;20018;-72
2021/03/30 00:14:06;;;;;;;;;;;15.60;52.30;;;;;;4364604;32;20019;-72
2021/03/30 00:16:35;;;;;;;;;;;15.60;52.30;;;;;;4364473;32;20052;-72
2021/03/30 00:19:05;;;;;;;;;;;15.60;52.40;;;;;;4363456;32;28660;-72
2021/03/30 00:21:37;;;;;;;;;;;15.60;52.70;;;;;;4378011;32;20004;-72
2021/03/30 00:24:05;;;;;;;;;;;15.60;52.90;;;;;;4377219;32;31289;-72
2021/03/30 00:26:35;;;;;;;;;;;15.50;52.70;;;;;;4363740;32;20428;-72
2021/03/30 00:29:04;;;;;;;;;;;15.50;52.70;;;;;;4363042;32;32607;-72
2021/03/30 00:31:31;;;;;;;;;;;15.50;52.50;;;;;;4376452;32;43789;-72
2021/03/30 00:34:01;;;;;;;;;;;15.50;52.50;;;;;;4376606;32;28163;-72
2021/03/30 00:36:27;;;;;;;;;;;15.50;52.70;;;;;;4376713;32;38494;-72
2021/03/30 00:38:54;;;;;;;;;;;15.40;52.70;;;;;;4377405;32;20008;-72
2021/03/30 00:41:21;;;;;;;;;;;15.40;52.60;;;;;;4377693;32;20004;-72
2021/03/30 00:43:50;;;;;;;;;;;15.40;52.60;;;;;;4364324;32;20097;-72
2021/03/30 00:46:20;;;;;;;;;;;15.40;52.90;;;;;;4376865;32;30082;-72
2021/03/30 00:48:48;;;;;;;;;;;15.40;52.90;;;;;;4376593;32;36756;-72
2021/03/30 00:51:16;;;;;;;;;;;15.30;52.90;;;;;;4377205;32;20411;-72
2021/03/30 00:53:46;;;;;;;;;;;15.30;52.80;;;;;;4377629;32;20067;-72
2021/03/30 00:56:13;;;;;;;;;;;15.30;53.00;;;;;;4377380;32;19997;-72
2021/03/30 00:58:39;;;;;;;;;;;15.30;53.00;;;;;;4376216;32;32023;-72
2021/03/30 01:01:06;;;;;;;;;;;15.20;53.10;;;;;;4362686;32;30966;-72
2021/03/30 01:03:32;;;;;;;;;;;15.20;53.00;;;;;;4377091;32;20008;-72
2021/03/30 01:05:59;;;;;;;;;;;15.20;52.80;;;;;;4377434;32;20051;-72
2021/03/30 01:08:26;;;;;;;;;;;15.10;52.60;;;;;;4377421;32;19996;-72
2021/03/30 01:10:55;;;;;;;;;;;15.10;52.70;;;;;;4376515;32;20018;-72
2021/03/30 01:13:38;;;;;;;;;;;15.10;52.60;;;;;;4363832;32;20056;-72
2021/03/30 01:16:07;;;;;;;;;;;15.10;52.20;;;;;;4377259;32;20018;-72
2021/03/30 01:18:45;;;;;;;;;;;15.10;52.10;;;;;;4377218;32;20016;-72
2021/03/30 01:21:21;;;;;;;;;;;15.10;52.20;;;;;;4377157;32;20026;-72
2021/03/30 01:23:54;;;;;;;;;;;15.10;52.30;;;;;;4363388;32;20012;-72
2021/03/30 01:26:30;;;;;;;;;;;15.00;52.10;;;;;;4361975;32;38136;-72
2021/03/30 01:29:00;;;;;;;;;;;15.00;52.10;;;;;;4351395;32;20078;-72
2021/03/30 01:31:34;;;;;;;;;;;15.00;51.80;;;;;;4376777;32;20012;-72
2021/03/30 01:34:00;;;;;;;;;;;15.00;52.00;;;;;;4362947;32;37504;-72
2021/03/30 01:36:32;;;;;;;;;;;15.00;52.00;;;;;;4362439;32;38082;-72
2021/03/30 01:38:59;;;;;;;;;;;15.00;51.80;;;;;;4375656;32;36697;-72
2021/03/30 01:41:26;;;;;;;;;;;15.00;52.10;;;;;;4362117;32;39738;-72
2021/03/30 01:43:54;;;;;;;;;;;14.90;51.90;;;;;;4375923;32;29043;-72
2021/03/30 01:46:28;;;;;;;;;;;14.90;52.00;;;;;;4351165;32;19997;-72
2021/03/30 01:48:59;;;;;;;;;;;14.90;52.00;;;;;;4375723;32;35964;-72
2021/03/30 01:51:26;;;;;;;;;;;14.90;52.80;;;;;;4361893;32;46450;-72
2021/03/30 01:53:53;;;;;;;;;;;14.90;52.20;;;;;;4375304;32;34515;-72
2021/03/30 01:56:20;;;;;;;;;;;14.90;51.90;;;;;;4362460;32;31802;-72
2021/03/30 01:58:48;;;;;;;;;;;14.90;52.00;;;;;;4362581;32;20093;-72
2021/03/30 02:01:15;;;;;;;;;;;14.90;51.90;;;;;;4362366;32;32277;-72
2021/03/30 02:03:42;;;;;;;;;;;14.80;51.90;;;;;;4361461;32;41737;-72
2021/03/30 02:06:09;;;;;;;;;;;14.80;52.00;;;;;;4375691;32;30169;-72
2021/03/30 02:08:39;;;;;;;;;;;14.80;51.90;;;;;;4375378;32;30752;-72
2021/03/30 02:11:05;;;;;;;;;;;14.80;51.80;;;;;;4361750;32;34111;-72
2021/03/30 02:13:42;;;;;;;;;;;14.80;52.00;;;;;;4362134;32;34683;-72
2021/03/30 02:16:11;;;;;;;;;;;14.70;52.10;;;;;;4375292;32;36912;-72
2021/03/30 02:18:59;;;;;;;;;;;14.70;52.10;;;;;;4361742;32;39947;-72
2021/03/30 02:21:32;;;;;;;;;;;14.60;52.40;;;;;;4363144;32;36505;-72
2021/03/30 02:24:03;;;;;;;;;;;14.60;52.60;;;;;;4375132;32;27213;-72
2021/03/30 02:26:33;;;;;;;;;;;14.50;52.50;;;;;;4363412;32;20413;-72
2021/03/30 02:29:00;;;;;;;;;;;14.50;52.60;;;;;;4374865;32;37297;-72
2021/03/30 02:31:31;;;;;;;;;;;14.50;52.60;;;;;;4374695;32;44351;-72
2021/03/30 02:34:01;;;;;;;;;;;14.50;52.40;;;;;;4375512;32;34189;-72
2021/03/30 02:36:28;;;;;;;;;;;14.50;52.50;;;;;;4374956;32;40290;-72
2021/03/30 02:38:56;;;;;;;;;;;14.50;52.30;;;;;;4362488;32;20015;-72
2021/03/30 02:41:22;;;;;;;;;;;14.50;52.40;;;;;;4375047;32;44712;-72
2021/03/30 02:43:49;;;;;;;;;;;14.60;52.20;;;;;;4375096;32;37531;-72
2021/03/30 02:46:17;;;;;;;;;;;14.50;52.20;;;;;;4374516;32;44661;-72
2021/03/30 02:48:47;;;;;;;;;;;14.50;52.20;;;;;;4375017;32;44642;-72
2021/03/30 02:51:14;;;;;;;;;;;14.50;52.40;;;;;;4375114;32;41712;-72
2021/03/30 02:53:43;;;;;;;;;;;14.50;52.00;;;;;;4374928;32;41300;-72
2021/03/30 02:56:10;;;;;;;;;;;14.50;52.00;;;;;;4374913;32;44459;-72
2021/03/30 02:58:37;;;;;;;;;;;14.50;51.90;;;;;;4361362;32;44019;-72
2021/03/30 03:01:07;;;;;;;;;;;14.50;51.80;;;;;;4361087;32;37371;-72
2021/03/30 03:03:34;;;;;;;;;;;14.50;51.80;;;;;;4361348;32;38142;-72
2021/03/30 03:06:04;;;;;;;;;;;14.40;51.70;;;;;;4374853;32;44649;-72
2021/03/30 03:08:30;;;;;;;;;;;14.50;51.90;;;;;;4375203;32;34126;-72
2021/03/30 03:10:58;;;;;;;;;;;14.40;51.70;;;;;;4374367;32;43383;-72
2021/03/30 03:13:25;;;;;;;;;;;14.40;51.90;;;;;;4361260;32;37249;-72
2021/03/30 03:15:52;;;;;;;;;;;14.40;51.90;;;;;;4375340;32;20451;-72
2021/03/30 03:18:19;;;;;;;;;;;14.40;52.00;;;;;;4362691;32;20064;-72
2021/03/30 03:20:47;;;;;;;;;;;14.40;52.20;;;;;;4361147;32;41473;-72
2021/03/30 03:23:14;;;;;;;;;;;14.40;52.30;;;;;;4362678;32;20419;-72
2021/03/30 03:25:43;;;;;;;;;;;14.30;52.40;;;;;;4375492;32;20060;-72
2021/03/30 03:28:10;;;;;;;;;;;14.40;52.50;;;;;;4362154;32;20004;-72
2021/03/30 03:30:38;;;;;;;;;;;14.30;52.20;;;;;;4362406;32;20005;-72
2021/03/30 03:33:09;;;;;;;;;;;14.30;52.50;;;;;;4350027;32;20373;-72
2021/03/30 03:35:40;;;;;;;;;;;14.30;52.30;;;;;;4376968;32;44290;-72
2021/03/30 03:38:13;;;;;;;;;;;14.30;52.40;;;;;;4363564;32;42597;-72
2021/03/30 03:40:39;;;;;;;;;;;14.20;52.60;;;;;;4378104;32;34923;-72
2021/03/30 03:43:06;;;;;;;;;;;14.20;52.30;;;;;;4364143;32;30722;-72
2021/03/30 03:45:32;;;;;;;;;;;14.10;52.40;;;;;;4351101;32;44242;-72
2021/03/30 03:47:59;;;;;;;;;;;14.10;52.70;;;;;;4377190;32;32807;-72
2021/03/30 03:50:25;;;;;;;;;;;14.10;52.70;;;;;;4377166;32;39140;-72
2021/03/30 03:52:56;;;;;;;;;;;14.10;52.80;;;;;;4377066;32;34428;-72
2021/03/30 03:55:23;;;;;;;;;;;14.10;52.70;;;;;;4377417;32;39032;-72
2021/03/30 03:57:54;;;;;;;;;;;14.00;52.80;;;;;;4377162;32;28490;-72
2021/03/30 04:00:22;;;;;;;;;;;14.00;53.40;;;;;;4377417;32;36971;-72
2021/03/30 04:02:54;;;;;;;;;;;14.00;52.90;;;;;;4376696;32;41114;-72
2021/03/30 04:05:22;;;;;;;;;;;14.00;53.10;;;;;;4378004;32;20004;-72
2021/03/30 04:07:53;;;;;;;;;;;13.90;53.10;;;;;;4377916;32;20055;-72
2021/03/30 04:10:21;;;;;;;;;;;13.90;53.10;;;;;;4364506;32;20022;-72
2021/03/30 04:12:48;;;;;;;;;;;13.90;53.10;;;;;;4378042;32;20068;-72
2021/03/30 04:15:18;;;;;;;;;;;13.90;53.20;;;;;;4378212;32;20001;-72
2021/03/30 04:17:47;;;;;;;;;;;13.80;53.20;;;;;;4364706;32;20023;-72
2021/03/30 04:20:15;;;;;;;;;;;13.80;53.20;;;;;;4364738;32;20023;-72
2021/03/30 04:22:55;;;;;;;;;;;13.80;53.30;;;;;;4364894;32;20008;-72
2021/03/30 04:25:22;;;;;;;;;;;13.80;53.40;;;;;;4377970;32;20008;-72
2021/03/30 04:27:52;;;;;;;;;;;13.80;53.70;;;;;;4364691;32;20016;-72
2021/03/30 04:30:21;;;;;;;;;;;13.70;53.70;;;;;;4377464;32;20011;-72
2021/03/30 04:32:48;;;;;;;;;;;13.70;53.50;;;;;;4364084;32;20079;-72
2021/03/30 04:35:18;;;;;;;;;;;13.70;53.50;;;;;;4364699;32;20056;-72
2021/03/30 04:37:45;;;;;;;;;;;13.70;53.50;;;;;;4377927;32;20014;-72
2021/03/30 04:40:13;;;;;;;;;;;13.70;53.60;;;;;;4363942;32;20026;-72
2021/03/30 04:42:40;;;;;;;;;;;13.60;53.60;;;;;;4364113;32;20020;-72
2021/03/30 04:45:07;;;;;;;;;;;13.60;53.70;;;;;;4364116;32;20016;-72
2021/03/30 04:47:34;;;;;;;;;;;13.60;53.70;;;;;;4363255;32;20001;-72
2021/03/30 04:50:01;;;;;;;;;;;13.60;53.50;;;;;;4377759;32;20009;-72
2021/03/30 04:52:28;;;;;;;;;;;13.60;53.70;;;;;;4377638;32;20389;-72
2021/03/30 04:54:58;;;;;;;;;;;13.60;53.60;;;;;;4377498;32;20063;-72
2021/03/30 04:57:24;;;;;;;;;;;13.60;53.60;;;;;;4377138;32;20024;-72
2021/03/30 04:59:54;;;;;;;;;;;13.60;53.70;;;;;;4363990;32;20060;-72
2021/03/30 05:02:20;;;;;;;;;;;13.50;53.90;;;;;;4376992;32;20061;-72
2021/03/30 05:04:48;;;;;;;;;;;13.50;54.10;;;;;;4377044;32;20026;-72
2021/03/30 05:07:15;;;;;;;;;;;13.50;54.10;;;;;;4377383;32;20473;-72
2021/03/30 05:09:42;;;;;;;;;;;13.50;54.10;;;;;;4351390;32;20007;-72
2021/03/30 05:12:12;;;;;;;;;;;13.50;54.10;;;;;;4377296;32;20072;-72
2021/03/30 05:14:42;;;;;;;;;;;13.40;54.20;;;;;;4363410;32;20414;-72
2021/03/30 05:17:14;;;;;;;;;;;13.40;54.00;;;;;;4376798;32;20026;-72
2021/03/30 05:19:41;;;;;;;;;;;13.40;54.10;;;;;;4377379;32;19997;-72
2021/03/30 05:22:08;;;;;;;;;;;13.40;54.10;;;;;;4377133;32;20274;-72
2021/03/30 05:24:35;;;;;;;;;;;13.30;54.30;;;;;;4363343;32;19996;-72
2021/03/30 05:27:05;;;;;;;;;;;13.40;54.20;;;;;;4377141;32;20012;-72
2021/03/30 05:29:54;;;;;;;;;;;13.30;54.00;;;;;;4363851;32;20008;-72
2021/03/30 05:32:19;;;;;;;;;;;13.30;54.20;;;;;;4376880;32;20402;-72
2021/03/30 05:34:50;;;;;;;;;;;13.30;54.30;;;;;;4376586;32;20439;-72
2021/03/30 05:37:17;;;;;;;;;;;13.30;54.20;;;;;;4376969;32;20039;-72
2021/03/30 05:39:43;;;;;;;;;;;13.30;54.30;;;;;;4362993;32;20049;-72
2021/03/30 05:42:13;;;;;;;;;;;13.30;54.10;;;;;;4350827;32;20008;-72
2021/03/30 05:44:40;;;;;;;;;;;13.30;54.40;;;;;;4363284;32;20009;-72
2021/03/30 05:49:41;;;;;;;;;;;13.30;54.40;;;;;;4375750;32;38605;-72
2021/03/30 05:52:27;;;;;;;;;;;13.20;54.40;;;;;;4376052;32;36889;-72
2021/03/30 05:54:58;;;;;;;;;;;13.20;54.30;;;;;;4375606;32;44603;-72
2021/03/30 05:57:26;;;;;;;;;;;13.20;54.40;;;;;;4349776;32;31949;-72
2021/03/30 05:59:54;;;;;;;;;;;13.20;54.60;;;;;;4349184;32;42697;-72
2021/03/30 06:02:28;;;;;;;;;;;13.20;54.70;;;;;;4361619;32;43618;-72
2021/03/30 06:04:56;;;;;;;;;;;13.20;54.70;;;;;;4375913;32;29666;-72
2021/03/30 06:07:27;;;;;;;;;;;13.10;54.70;;;;;;4375476;32;44364;-72
2021/03/30 06:09:54;;;;;;;;;;;13.10;54.80;;;;;;4362006;32;44990;-72
2021/03/30 06:12:20;;;;;;;;;;;13.10;54.90;;;;;;4361991;32;44328;-72
2021/03/30 06:14:52;;;;;;;;;;;13.10;55.10;;;;;;4375341;32;33936;-72
2021/03/30 06:17:19;;;;;;;;;;;13.10;55.00;;;;;;4361952;32;43660;-72
2021/03/30 06:19:54;;;;;;;;;;;13.10;54.90;;;;;;4375755;32;33261;-72
2021/03/30 06:22:25;;;;;;;;;;;13.10;55.50;;;;;;4361960;32;44595;-72
2021/03/30 06:24:56;;;;;;;;;;;13.10;54.90;;;;;;4361415;32;44761;-72
2021/03/30 06:27:25;;;;;;;;;;;13.10;55.00;;;;;;4349397;32;42152;-72
2021/03/30 06:29:55;;;;;;;;;;;13.10;55.10;;;;;;4362142;32;20368;-72
2021/03/30 06:32:25;;;;;;;;;;;13.10;55.00;;;;;;4376322;32;20008;-72
2021/03/30 06:34:58;;;;;;;;;;;13.10;55.10;;;;;;4376128;32;19997;-72
2021/03/30 06:37:36;;;;;;;;;;;13.10;55.30;;;;;;4362379;32;20008;-72
2021/03/30 06:40:09;;;;;;;;;;;13.00;55.40;;;;;;4349170;32;33854;-72
2021/03/30 06:42:45;;;;;;;;;;;13.10;55.40;;;;;;4376068;32;20398;-72
2021/03/30 06:45:15;;;;;;;;;;;13.00;55.40;;;;;;4362607;32;20004;-72
2021/03/30 06:47:43;;;;;;;;;;;13.00;55.50;;;;;;4376057;32;20000;-72
2021/03/30 06:50:17;;;;;;;;;;;13.00;55.50;;;;;;4376411;32;20095;-72
2021/03/30 06:52:44;;;;;;;;;;;13.00;55.60;;;;;;4362486;32;20079;-72
2021/03/30 06:55:12;;;;;;;;;;;13.00;55.80;;;;;;4376119;32;20004;-72
2021/03/30 06:57:46;;;;;;;;;;;13.00;55.70;;;;;;4375635;32;20067;-72
2021/03/30 07:00:19;;;;;;;;;;;13.00;55.80;;;;;;4376258;32;20027;-72
2021/03/30 07:02:54;;;;;;;;;;;13.00;56.00;;;;;;4375551;32;20004;-72
2021/03/30 07:05:27;;;;;;;;;;;13.00;56.10;;;;;;4376107;32;20012;-72
2021/03/30 07:07:57;;;;;;;;;;;13.00;56.20;;;;;;4362952;32;20027;-72
2021/03/30 07:10:35;;;;;;;;;;;13.00;56.30;;;;;;4378192;32;20009;-72
2021/03/30 07:13:05;;;;;;;;;;;13.00;56.40;;;;;;4379102;32;20060;-72
2021/03/30 07:15:35;;;;;;;;;;;13.00;56.50;;;;;;4378944;32;20016;-72
2021/03/30 07:18:06;;;;;;;;;;;13.00;56.60;;;;;;4365619;32;20016;-72
2021/03/30 07:20:43;;;;;;;;;;;13.00;56.70;;;;;;4378966;32;20005;-72
2021/03/30 07:23:25;;;;;;;;;;;13.00;56.80;;;;;;4365185;32;20010;-72
2021/03/30 07:25:56;;;;;;;;;;;13.10;57.00;;;;;;4352803;32;20056;-72
2021/03/30 07:28:30;;;;;;;;;;;13.00;57.00;;;;;;4378721;32;20056;-72
2021/03/30 07:31:04;;;;;;;;;;;13.10;57.00;;;;;;4365450;32;20064;-72
2021/03/30 07:33:41;;;;;;;;;;;13.10;56.90;;;;;;4378986;32;20005;-72
2021/03/30 07:36:09;;;;;;;;;;;13.10;56.90;;;;;;4352937;32;20068;-72
2021/03/30 07:38:45;;;;;;;;;;;13.10;56.90;;;;;;4378705;32;20005;-72
2021/03/30 07:41:18;;;;;;;;;;;13.20;57.00;;;;;;4365296;32;20012;-72
2021/03/30 07:43:47;;;;;;;;;;;13.20;57.10;;;;;;4378620;32;20009;-72
2021/03/30 07:46:24;;;;;;;;;;;13.20;57.20;;;;;;4365579;32;20012;-72
2021/03/30 07:48:53;;;;;;;;;;;13.20;57.40;;;;;;4378648;32;20059;-72
2021/03/30 07:51:39;;;;;;;;;;;13.20;57.40;;;;;;4378541;32;20445;-72
2021/03/30 07:54:08;;;;;;;;;;;13.30;57.40;;;;;;4365201;32;20438;-72
2021/03/30 07:56:47;;;;;;;;;;;13.30;57.50;;;;;;4365070;32;20022;-72
2021/03/30 07:59:32;;;;;;;;;;;13.30;57.60;;;;;;4364869;32;20010;-72
2021/03/30 08:01:59;;;;;;;;;;;13.30;57.70;;;;;;4377839;32;20518;-72
2021/03/30 08:04:34;;;;;;;;;;;13.30;57.70;;;;;;4364259;32;20045;-72
2021/03/30 08:07:06;;;;;;;;;;;13.40;57.90;;;;;;4364820;32;20366;-72
2021/03/30 08:09:33;;;;;;;;;;;13.40;57.90;;;;;;4363614;32;44990;-72
2021/03/30 08:12:00;;;;;;;;;;;13.40;57.90;;;;;;4351161;32;26804;-72
2021/03/30 08:14:28;;;;;;;;;;;13.40;58.00;;;;;;4376955;32;37132;-72
2021/03/30 08:17:10;;;;;;;;;;;13.40;58.10;;;;;;4363234;32;42943;-72
2021/03/30 08:19:51;;;;;;;;;;;13.40;58.00;;;;;;4377388;32;32717;-72
2021/03/30 08:22:18;;;;;;;;;;;13.40;58.10;;;;;;4376626;32;32536;-72
2021/03/30 08:24:44;;;;;;;;;;;13.50;58.30;;;;;;4362959;32;43315;-72
2021/03/30 08:27:29;;;;;;;;;;;13.50;58.30;;;;;;4377658;32;20008;-72
2021/03/30 08:29:59;;;;;;;;;;;13.50;58.30;;;;;;4364297;32;20023;-72
2021/03/30 08:32:33;;;;;;;;;;;13.60;58.40;;;;;;4351082;32;41493;-72
2021/03/30 08:35:09;;;;;;;;;;;13.60;58.40;;;;;;4376705;32;40261;-72
2021/03/30 08:37:43;;;;;;;;;;;13.60;58.50;;;;;;4377925;32;20012;-72
2021/03/30 08:40:39;;;;;;;;;;;13.60;58.60;;;;;;4364135;32;20373;-72
2021/03/30 08:43:12;;;;;;;;;;;13.70;58.60;;;;;;4360521;32;44341;-72
2021/03/30 08:45:54;;;;;;;;;;;13.70;58.60;;;;;;4362544;32;44612;-72
2021/03/30 08:48:40;;;;;;;;;;;13.70;58.60;;;;;;4377713;32;20008;-72
2021/03/30 08:51:10;;;;;;;;;;;13.70;58.70;;;;;;4377642;32;20427;-72
2021/03/30 08:53:42;;;;;;;;;;;13.70;58.70;;;;;;4377481;32;20432;-72
2021/03/30 08:56:13;;;;;;;;;;;13.70;58.70;;;;;;4364057;32;20008;-72
2021/03/30 08:58:47;;;;;;;;;;;13.80;58.80;;;;;;4377660;32;20013;-72
2021/03/30 09:01:17;;;;;;;;;;;13.80;58.80;;;;;;4377364;32;20013;-72
2021/03/30 09:03:51;;;;;;;;;;;13.80;58.70;;;;;;4349192;32;20410;-72
2021/03/30 09:06:28;;;;;;;;;;;13.80;58.70;;;;;;4361521;32;20049;-72
2021/03/30 09:08:55;;;;;;;;;;;13.90;58.80;;;;;;4361146;32;20013;-72
2021/03/30 09:11:26;;;;;;;;;;;13.90;58.70;;;;;;4362625;32;20005;-72
2021/03/30 09:14:01;;;;;;;;;;;13.90;58.80;;;;;;4362264;32;20005;-72
2021/03/30 09:16:31;;;;;;;;;;;13.90;58.80;;;;;;4362545;32;20440;-72
2021/03/30 09:19:11;;;;;;;;;;;13.90;58.70;;;;;;4362138;32;20008;-72
2021/03/30 09:21:38;;;;;;;;;;;14.00;58.80;;;;;;4361141;32;20001;-72
2021/03/30 09:24:27;;;;;;;;;;;14.00;58.70;;;;;;4362080;32;20005;-71
2021/03/30 09:27:02;;;;;;;;;;;14.00;58.80;;;;;;4348352;32;20011;-71
2021/03/30 09:29:35;;;;;;;;;;;14.10;58.90;;;;;;4361056;32;20018;-72
2021/03/30 09:32:07;;;;;;;;;;;14.10;58.90;;;;;;4362158;32;20031;-72
2021/03/30 09:34:44;;;;;;;;;;;14.10;58.80;;;;;;4362245;32;20023;-72
2021/03/30 09:37:15;;;;;;;;;;;14.10;58.80;;;;;;4362092;32;20027;-71
2021/03/30 09:39:44;;;;;;;;;;;14.10;58.80;;;;;;4360868;32;40309;-72
2021/03/30 09:42:16;;;;;;;;;;;14.20;58.90;;;;;;4361918;32;20012;-71
2021/03/30 09:44:44;;;;;;;;;;;14.20;58.80;;;;;;4361075;32;44309;-71
2021/03/30 09:47:14;;;;;;;;;;;14.20;58.70;;;;;;4360831;32;37677;-71
2021/03/30 09:49:46;;;;;;;;;;;14.30;58.60;;;;;;4359688;32;40605;-71
2021/03/30 09:52:13;;;;;;;;;;;14.30;58.50;;;;;;4360615;32;43396;-71
2021/03/30 09:54:42;;;;;;;;;;;14.40;58.60;;;;;;4360301;32;40295;-71
2021/03/30 09:57:11;;;;;;;;;;;14.40;58.60;;;;;;4359270;32;46494;-71
2021/03/30 09:59:47;;;;;;;;;;;14.40;58.60;;;;;;4361420;32;20410;-71
2021/03/30 10:02:17;;;;;;;;;;;14.40;58.60;;;;;;4366646;32;20020;-71
2021/03/30 10:04:44;;;;;;;;;;;14.40;58.60;;;;;;4376515;32;20016;-71
2021/03/30 10:07:18;;;;;;;;;;;14.50;58.70;;;;;;4362698;32;20004;-71
2021/03/30 10:10:02;;;;;;;;;;;14.50;58.70;;;;;;4363058;32;20409;-71
2021/03/30 10:12:32;;;;;;;;;;;14.50;58.70;;;;;;4361315;32;44773;-71
2021/03/30 10:14:59;;;;;;;;;;;14.60;58.70;;;;;;4363031;32;20001;-71
2021/03/30 10:17:29;;;;;;;;;;;14.60;58.60;;;;;;4362763;32;20438;-71
2021/03/30 10:19:57;;;;;;;;;;;14.60;58.50;;;;;;4376428;32;20012;-71
2021/03/30 10:22:25;;;;;;;;;;;14.70;58.50;;;;;;4376233;32;20019;-71
2021/03/30 10:25:21;;;;;;;;;;;14.70;58.50;;;;;;4375418;32;44240;-71
2021/03/30 10:27:49;;;;;;;;;;;14.70;58.40;;;;;;4375275;32;37806;-71
2021/03/30 10:30:16;;;;;;;;;;;14.80;58.60;;;;;;4374935;32;43381;-72
2021/03/30 10:32:47;;;;;;;;;;;14.80;58.30;;;;;;4374912;32;36485;-71
2021/03/30 10:35:17;;;;;;;;;;;14.80;58.30;;;;;;4362668;32;20368;-72
2021/03/30 10:37:46;;;;;;;;;;;14.90;58.30;;;;;;4375198;32;44022;-72
2021/03/30 10:40:13;;;;;;;;;;;14.90;58.20;;;;;;4375093;32;44090;-72
2021/03/30 10:42:40;;;;;;;;;;;14.90;58.10;;;;;;4376162;32;20067;-72
2021/03/30 10:45:10;;;;;;;;;;;15.00;58.10;;;;;;4378349;32;20056;-71
2021/03/30 10:47:40;;;;;;;;;;;15.00;58.00;;;;;;4366262;32;20008;-72
2021/03/30 10:50:15;;;;;;;;;;;15.00;58.00;;;;;;4378840;32;20014;-72
2021/03/30 10:52:43;;;;;;;;;;;15.10;57.90;;;;;;4378391;32;38756;-72
2021/03/30 10:55:20;;;;;;;;;;;15.10;58.00;;;;;;4379321;32;20015;-72
2021/03/30 10:57:49;;;;;;;;;;;15.10;57.90;;;;;;4364841;32;26408;-72
2021/03/30 11:00:17;;;;;;;;;;;15.20;57.90;;;;;;4378626;32;20406;-72
2021/03/30 11:02:43;;;;;;;;;;;15.20;57.90;;;;;;4378280;32;20004;-72
2021/03/30 11:05:13;;;;;;;;;;;15.20;57.80;;;;;;4379256;32;20057;-72
2021/03/30 11:07:43;;;;;;;;;;;15.30;57.80;;;;;;4365479;32;20000;-72
2021/03/30 11:10:11;;;;;;;;;;;15.30;57.90;;;;;;4363931;32;45732;-72
2021/03/30 11:12:39;;;;;;;;;;;15.30;57.80;;;;;;4365506;32;20026;-72
2021/03/30 11:15:07;;;;;;;;;;;15.40;57.80;;;;;;4377355;32;43196;-72
2021/03/30 11:17:34;;;;;;;;;;;15.40;57.70;;;;;;4364837;32;20027;-72
2021/03/30 11:20:05;;;;;;;;;;;15.50;57.70;;;;;;4377687;32;43813;-72
2021/03/30 11:22:38;;;;;;;;;;;15.50;57.70;;;;;;4379026;32;20349;-72
2021/03/30 11:25:09;;;;;;;;;;;15.50;57.70;;;;;;4379119;32;20021;-72
2021/03/30 11:27:46;;;;;;;;;;;15.60;57.70;;;;;;4377366;32;44052;-72
2021/03/30 11:35:20;;;;;;;;;;;15.70;57.70;;;;;;4378144;32;20016;-72
2021/03/30 11:40:17;;;;;;;;;;;15.80;57.60;;;;;;4364507;32;20012;-72
2021/03/30 11:42:47;;;;;;;;;;;15.80;57.50;;;;;;4378238;32;20023;-72
2021/03/30 11:45:16;;;;;;;;;;;15.90;57.10;;;;;;4377818;32;28879;-72
2021/03/30 11:47:43;;;;;;;;;;;15.90;57.30;;;;;;4377483;32;44336;-72
2021/03/30 11:50:12;;;;;;;;;;;16.00;57.30;;;;;;4377117;32;43675;-72
2021/03/30 11:52:39;;;;;;;;;;;16.00;57.30;;;;;;4377003;32;37718;-72
2021/03/30 11:55:06;;;;;;;;;;;16.00;57.30;;;;;;4378321;32;20064;-72
2021/03/30 11:57:33;;;;;;;;;;;16.10;57.10;;;;;;4364821;32;20397;-72
2021/03/30 12:00:03;;;;;;;;;;;16.10;57.20;;;;;;4378420;32;20468;-72
2021/03/30 12:02:49;;;;;;;;;;;16.20;57.20;;;;;;4365690;32;44312;-72
2021/03/30 12:05:18;;;;;;;;;;;16.20;57.30;;;;;;4377005;32;31267;-72
2021/03/30 12:07:45;;;;;;;;;;;16.20;57.20;;;;;;4376625;32;41797;-72
2021/03/30 12:10:18;;;;;;;;;;;16.30;57.30;;;;;;4377102;32;44673;-72
2021/03/30 12:12:45;;;;;;;;;;;16.30;57.30;;;;;;4377071;32;41135;-72
2021/03/30 12:15:12;;;;;;;;;;;16.30;57.30;;;;;;4376963;32;43926;-72
2021/03/30 12:17:39;;;;;;;;;;;16.40;57.50;;;;;;4363149;32;44406;-72
2021/03/30 12:20:09;;;;;;;;;;;16.40;57.40;;;;;;4378232;32;20008;-72
2021/03/30 12:22:38;;;;;;;;;;;16.40;57.40;;;;;;4364013;32;26009;-72
2021/03/30 12:25:08;;;;;;;;;;;16.50;57.40;;;;;;4376752;32;43353;-72
2021/03/30 12:27:37;;;;;;;;;;;16.50;57.40;;;;;;4376472;32;43987;-72
2021/03/30 12:30:05;;;;;;;;;;;16.50;57.30;;;;;;4376721;32;43644;-72
2021/03/30 12:32:31;;;;;;;;;;;16.50;57.30;;;;;;4375762;32;42580;-72
2021/03/30 12:34:58;;;;;;;;;;;16.60;57.40;;;;;;4374645;32;43423;-72
2021/03/30 12:37:28;;;;;;;;;;;16.60;57.40;;;;;;4376083;32;43336;-72
2021/03/30 12:39:54;;;;;;;;;;;16.70;57.50;;;;;;4376469;32;30429;-72
2021/03/30 12:42:21;;;;;;;;;;;16.70;57.30;;;;;;4351869;32;20005;-72
2021/03/30 12:44:47;;;;;;;;;;;16.70;57.30;;;;;;4376398;32;35953;-72
2021/03/30 12:47:14;;;;;;;;;;;16.80;57.30;;;;;;4362348;32;20001;-72
2021/03/30 12:49:43;;;;;;;;;;;16.80;57.20;;;;;;4376127;32;40913;-72
2021/03/30 12:52:10;;;;;;;;;;;16.80;57.20;;;;;;4362876;32;44637;-72
2021/03/30 12:54:37;;;;;;;;;;;16.90;57.30;;;;;;4376416;32;44829;-72
2021/03/30 12:57:09;;;;;;;;;;;16.90;57.30;;;;;;4363307;32;20001;-72
2021/03/30 12:59:43;;;;;;;;;;;16.90;57.10;;;;;;4363775;32;34092;-73
2021/03/30 13:02:11;;;;;;;;;;;17.00;57.30;;;;;;4376021;32;41088;-73
2021/03/30 13:04:44;;;;;;;;;;;17.10;57.30;;;;;;4375762;32;44708;-73
2021/03/30 13:07:18;;;;;;;;;;;17.10;57.10;;;;;;4361920;32;41779;-73
2021/03/30 13:09:50;;;;;;;;;;;17.10;57.20;;;;;;4350239;32;42821;-73
2021/03/30 13:12:16;;;;;;;;;;;17.20;57.20;;;;;;4376553;32;29344;-73
2021/03/30 13:14:45;;;;;;;;;;;17.20;57.20;;;;;;4375841;32;34976;-73
2021/03/30 13:17:11;;;;;;;;;;;17.30;57.00;;;;;;4362489;32;43629;-73
2021/03/30 13:19:38;;;;;;;;;;;17.30;56.90;;;;;;4375729;32;42507;-73
2021/03/30 13:22:11;;;;;;;;;;;17.40;57.00;;;;;;4375961;32;43318;-73
2021/03/30 13:24:39;;;;;;;;;;;17.50;57.10;;;;;;4362584;32;44600;-73
2021/03/30 13:27:10;;;;;;;;;;;17.40;57.00;;;;;;4375750;32;41884;-73
2021/03/30 13:29:40;;;;;;;;;;;17.50;57.10;;;;;;4375982;32;42528;-73
2021/03/30 13:32:10;;;;;;;;;;;17.60;57.00;;;;;;4375830;32;43216;-73
2021/03/30 13:34:38;;;;;;;;;;;17.60;57.10;;;;;;4361912;32;45140;-73
2021/03/30 13:37:05;;;;;;;;;;;17.60;57.00;;;;;;4375810;32;43573;-73
2021/03/30 13:39:32;;;;;;;;;;;17.70;56.90;;;;;;4375285;32;44609;-73
2021/03/30 13:41:59;;;;;;;;;;;17.70;56.80;;;;;;4375523;32;42658;-73
2021/03/30 13:44:27;;;;;;;;;;;17.70;56.90;;;;;;4375622;32;44306;-73
2021/03/30 13:46:56;;;;;;;;;;;17.80;56.80;;;;;;4375983;32;44401;-73
2021/03/30 13:49:27;;;;;;;;;;;17.80;56.70;;;;;;4362103;32;34719;-73
2021/03/30 13:51:54;;;;;;;;;;;17.80;56.50;;;;;;4349724;32;42872;-73
2021/03/30 13:54:21;;;;;;;;;;;17.90;56.70;;;;;;4362138;32;43368;-73
2021/03/30 13:56:48;;;;;;;;;;;17.90;56.80;;;;;;4375782;32;37171;-73
2021/03/30 13:59:14;;;;;;;;;;;18.00;56.90;;;;;;4375022;32;44349;-73
2021/03/30 14:01:41;;;;;;;;;;;18.00;56.90;;;;;;4361845;32;44853;-73
2021/03/30 14:04:08;;;;;;;;;;;18.10;56.80;;;;;;4375317;32;42822;-73
2021/03/30 14:06:40;;;;;;;;;;;18.10;56.70;;;;;;4375617;32;44369;-73
2021/03/30 14:09:07;;;;;;;;;;;18.20;57.40;;;;;;4375351;32;42555;-73
2021/03/30 14:11:51;;;;;;;;;;;18.20;56.90;;;;;;4375409;32;44371;-73
2021/03/30 14:14:21;;;;;;;;;;;18.20;56.80;;;;;;4375500;32;40976;-74
2021/03/30 14:19:45;;;;;;;;;;;18.30;56.70;;;;;;4375416;32;34115;-73
2021/03/30 14:22:15;;;;;;;;;;;18.40;56.80;;;;;;4376222;32;20027;-73
2021/03/30 14:24:48;;;;;;;;;;;18.40;56.80;;;;;;4375859;32;20015;-73
2021/03/30 14:27:17;;;;;;;;;;;18.50;56.80;;;;;;4374679;32;44661;-73
2021/03/30 14:30:04;;;;;;;;;;;18.50;56.70;;;;;;4364518;32;27330;-74
2021/03/30 14:32:34;;;;;;;;;;;18.60;56.90;;;;;;4375250;32;36411;-74
2021/03/30 14:35:01;;;;;;;;;;;18.60;56.80;;;;;;4361592;32;36495;-74
2021/03/30 14:37:31;;;;;;;;;;;18.70;56.70;;;;;;4374866;32;43012;-74
2021/03/30 14:40:43;;;;;;;;;;;18.70;56.90;;;;;;4375249;32;38254;-74
2021/03/30 14:43:26;;;;;;;;;;;18.80;56.80;;;;;;4366812;32;43365;-74
2021/03/30 14:52:13;;;;;;;;;;;18.90;56.60;;;;;;4362833;32;20053;-74
2021/03/30 14:57:31;;;;;;;;;;;19.00;56.10;;;;;;4376112;32;20022;-74